createdAt,value
2018-04-22T00:01:27.402Z,4.27
2018-04-22T00:03:55.025Z,4.73
2018-04-22T00:06:22.698Z,4.27
2018-04-22T00:08:50.378Z,6.50
2018-04-22T00:11:18.036Z,5.87
2018-04-22T00:13:45.676Z,5.30
2018-04-22T00:16:13.454Z,5.30
2018-04-22T00:18:41.171Z,4.80
2018-04-22T00:21:08.881Z,4.20
2018-04-22T00:23:37.671Z,6.13
2018-04-22T00:26:05.363Z,5.30
2018-04-22T00:28:32.996Z,5.07
2018-04-22T00:31:00.635Z,5.93
2018-04-22T00:33:28.220Z,5.77
2018-04-22T00:35:55.863Z,4.83
2018-04-22T00:38:23.593Z,5.33
2018-04-22T00:40:51.245Z,5.33
2018-04-22T00:43:18.839Z,4.20
2018-04-22T00:45:46.475Z,4.97
2018-04-22T00:48:14.075Z,4.67
2018-04-22T00:50:41.772Z,5.17
2018-04-22T00:53:09.467Z,5.00
2018-04-22T00:55:37.173Z,5.67
2018-04-22T00:58:04.828Z,4.93
2018-04-22T01:00:32.465Z,4.67
2018-04-22T01:03:01.327Z,5.67
2018-04-22T01:05:28.992Z,6.70
2018-04-22T01:07:56.599Z,6.20
2018-04-22T01:10:24.247Z,6.10
2018-04-22T01:12:51.831Z,5.10
2018-04-22T01:15:19.455Z,4.57
2018-04-22T01:17:47.200Z,5.87
2018-04-22T01:20:14.816Z,4.80
2018-04-22T01:22:42.483Z,4.87
2018-04-22T01:25:10.634Z,5.73
2018-04-22T01:27:38.261Z,5.27
2018-04-22T01:30:05.928Z,4.90
2018-04-22T01:32:33.675Z,6.13
2018-04-22T01:35:01.335Z,6.27
2018-04-22T01:37:28.969Z,4.90
2018-04-22T01:39:57.671Z,6.03
2018-04-22T01:42:25.346Z,5.90
2018-04-22T01:44:53.015Z,4.40
2018-04-22T01:47:20.613Z,5.03
2018-04-22T01:49:48.244Z,5.80
2018-04-22T01:52:15.831Z,5.33
2018-04-22T01:54:43.461Z,5.10
2018-04-22T01:57:11.035Z,5.67
2018-04-22T01:59:38.688Z,5.07
2018-04-22T02:02:06.311Z,5.60
2018-04-22T02:04:33.917Z,5.80
2018-04-22T02:07:01.548Z,6.10
2018-04-22T02:09:29.143Z,5.50
2018-04-22T02:11:56.798Z,4.70
2018-04-22T02:14:24.400Z,5.03
2018-04-22T02:16:52.047Z,6.83
2018-04-22T02:19:19.633Z,5.20
2018-04-22T02:21:47.236Z,4.27
2018-04-22T02:24:14.853Z,6.10
2018-04-22T02:26:42.527Z,5.77
2018-04-22T02:29:10.134Z,5.30
2018-04-22T02:31:37.846Z,5.00
2018-04-22T02:34:05.436Z,5.30
2018-04-22T02:36:33.191Z,7.97
2018-04-22T02:39:00.803Z,4.70
2018-04-22T02:41:28.406Z,6.97
2018-04-22T02:43:56.034Z,4.90
2018-04-22T02:46:23.662Z,5.93
2018-04-22T02:48:51.314Z,5.23
2018-04-22T02:51:19.001Z,5.50
2018-04-22T02:53:46.605Z,5.73
2018-04-22T02:56:14.282Z,4.90
2018-04-22T02:58:41.931Z,4.83
2018-04-22T03:01:09.635Z,5.73
2018-04-22T03:03:37.248Z,5.43
2018-04-22T03:06:04.998Z,5.73
2018-04-22T03:08:32.582Z,5.90
2018-04-22T03:11:00.201Z,5.33
2018-04-22T03:13:27.931Z,5.63
2018-04-22T03:15:55.602Z,4.83
2018-04-22T03:18:23.183Z,6.03
2018-04-22T03:20:50.780Z,6.30
2018-04-22T03:23:18.404Z,5.33
2018-04-22T03:25:46.033Z,6.50
2018-04-22T03:28:14.048Z,6.43
2018-04-22T03:30:41.722Z,6.10
2018-04-22T03:33:09.332Z,4.87
2018-04-22T03:35:37.334Z,6.43
2018-04-22T03:38:05.829Z,5.23
2018-04-22T03:40:33.638Z,6.90
2018-04-22T03:43:01.254Z,5.70
2018-04-22T03:45:28.891Z,6.53
2018-04-22T03:47:56.547Z,6.77
2018-04-22T03:50:24.163Z,6.10
2018-04-22T03:52:51.827Z,6.00
2018-04-22T03:55:19.416Z,5.83
2018-04-22T03:57:47.019Z,6.03
2018-04-22T04:00:14.710Z,6.13
2018-04-22T04:02:42.496Z,6.70
2018-04-22T04:05:10.241Z,6.60
2018-04-22T04:07:37.914Z,5.27
2018-04-22T04:10:05.624Z,5.90
2018-04-22T04:12:33.258Z,6.20
2018-04-22T04:15:00.945Z,4.80
2018-04-22T04:17:28.763Z,4.80
2018-04-22T04:20:08.203Z,4.83
2018-04-22T04:22:47.633Z,5.63
2018-04-22T04:25:35.963Z,6.40
2018-04-22T04:28:03.619Z,5.20
2018-04-22T04:30:31.196Z,6.17
2018-04-22T04:32:58.847Z,6.23
2018-04-22T04:35:26.455Z,5.97
2018-04-22T04:37:54.198Z,5.77
2018-04-22T04:40:21.808Z,5.67
2018-04-22T04:42:49.423Z,6.23
2018-04-22T04:45:17.349Z,7.50
2018-04-22T04:47:45.135Z,6.60
2018-04-22T04:50:12.921Z,6.17
2018-04-22T04:52:40.542Z,5.77
2018-04-22T04:55:08.261Z,6.20
2018-04-22T04:57:35.967Z,6.13
2018-04-22T05:00:03.574Z,5.83
2018-04-22T05:02:31.272Z,5.00
2018-04-22T05:04:58.913Z,6.30
2018-04-22T05:07:26.517Z,7.90
2018-04-22T05:09:54.208Z,6.77
2018-04-22T05:12:22.969Z,5.97
2018-04-22T05:14:50.623Z,7.23
2018-04-22T05:17:18.206Z,6.10
2018-04-22T05:19:45.854Z,6.50
2018-04-22T05:22:13.564Z,7.20
2018-04-22T05:24:41.321Z,6.93
2018-04-22T05:27:09.004Z,6.57
2018-04-22T05:29:36.748Z,6.73
2018-04-22T05:32:04.407Z,6.00
2018-04-22T05:34:32.089Z,5.87
2018-04-22T05:36:59.730Z,6.30
2018-04-22T05:39:27.385Z,5.53
2018-04-22T05:41:55.088Z,6.43
2018-04-22T05:44:22.817Z,7.07
2018-04-22T05:46:51.403Z,8.10
2018-04-22T05:49:19.056Z,6.73
2018-04-22T05:51:46.710Z,6.10
2018-04-22T05:54:15.168Z,4.93
2018-04-22T05:56:42.887Z,5.33
2018-04-22T05:59:10.576Z,6.57
2018-04-22T06:01:38.190Z,7.80
2018-04-22T06:04:05.990Z,7.97
2018-04-22T06:06:33.675Z,10.03
2018-04-22T06:09:01.392Z,6.73
2018-04-22T06:11:29.023Z,8.97
2018-04-22T06:13:56.790Z,6.67
2018-04-22T06:16:24.462Z,7.93
2018-04-22T06:18:52.129Z,7.80
2018-04-22T06:21:20.100Z,8.27
2018-04-22T06:23:47.945Z,7.43
2018-04-22T06:26:15.643Z,6.97
2018-04-22T06:28:43.404Z,7.73
2018-04-22T06:31:11.057Z,9.73
2018-04-22T06:33:38.731Z,8.20
2018-04-22T06:36:06.522Z,7.30
2018-04-22T06:38:34.250Z,8.13
2018-04-22T06:41:01.949Z,7.90
2018-04-22T06:43:29.659Z,7.40
2018-04-22T06:45:57.377Z,9.17
2018-04-22T06:48:25.019Z,8.23
2018-04-22T06:50:52.630Z,9.20
2018-04-22T06:53:20.326Z,8.50
2018-04-22T06:55:47.957Z,8.70
2018-04-22T06:58:15.619Z,8.40
2018-04-22T07:00:43.420Z,8.53
2018-04-22T07:03:11.040Z,8.43
2018-04-22T07:05:38.678Z,8.50
2018-04-22T07:08:06.383Z,8.43
2018-04-22T07:10:34.074Z,7.30
2018-04-22T07:13:01.740Z,7.57
2018-04-22T07:15:29.378Z,6.90
2018-04-22T07:17:57.189Z,7.20
2018-04-22T07:20:24.849Z,6.67
2018-04-22T07:22:52.502Z,7.53
2018-04-22T07:25:20.230Z,7.30
2018-04-22T07:27:47.940Z,6.93
2018-04-22T07:30:15.678Z,7.10
2018-04-22T07:32:43.374Z,7.20
2018-04-22T07:35:11.037Z,7.10
2018-04-22T07:37:38.658Z,7.17
2018-04-22T07:40:06.329Z,7.23
2018-04-22T07:42:34.074Z,6.73
2018-04-22T07:45:01.707Z,7.47
2018-04-22T07:47:29.409Z,7.73
2018-04-22T07:49:57.030Z,6.50
2018-04-22T07:52:24.668Z,6.00
2018-04-22T07:54:52.449Z,6.20
2018-04-22T07:57:20.079Z,6.30
2018-04-22T07:59:47.703Z,6.13
2018-04-22T08:02:15.378Z,6.73
2018-04-22T08:04:43.050Z,5.70
2018-04-22T08:07:10.738Z,7.20
2018-04-22T08:09:38.372Z,6.43
2018-04-22T08:12:06.021Z,7.57
2018-04-22T08:14:33.769Z,7.10
2018-04-22T08:17:01.467Z,6.97
2018-04-22T08:19:29.100Z,7.37
2018-04-22T08:21:56.787Z,6.47
2018-04-22T08:24:24.397Z,7.00
2018-04-22T08:26:52.061Z,7.67
2018-04-22T08:29:20.851Z,6.60
2018-04-22T08:31:48.477Z,6.90
2018-04-22T08:34:16.237Z,7.77
2018-04-22T08:36:43.892Z,6.50
2018-04-22T08:39:11.537Z,6.80
2018-04-22T08:41:39.220Z,6.40
2018-04-22T08:44:06.837Z,7.37
2018-04-22T08:46:34.611Z,6.07
2018-04-22T08:49:02.247Z,6.40
2018-04-22T08:51:29.961Z,7.30
2018-04-22T08:53:57.635Z,5.47
2018-04-22T08:56:25.233Z,6.40
2018-04-22T08:58:52.913Z,5.80
2018-04-22T09:01:20.568Z,7.50
2018-04-22T09:03:48.175Z,6.07
2018-04-22T09:06:15.869Z,6.50
2018-04-22T09:08:43.612Z,5.70
2018-04-22T09:11:11.274Z,6.70
2018-04-22T09:13:38.943Z,5.73
2018-04-22T09:16:06.544Z,6.03
2018-04-22T09:18:34.185Z,5.37
2018-04-22T09:21:01.799Z,5.10
2018-04-22T09:23:29.491Z,6.50
2018-04-22T09:25:57.179Z,6.27
2018-04-22T09:28:24.802Z,5.87
2018-04-22T09:30:52.570Z,5.73
2018-04-22T09:33:20.277Z,5.20
2018-04-22T09:35:47.882Z,5.60
2018-04-22T09:38:15.558Z,5.63
2018-04-22T09:40:43.253Z,5.20
2018-04-22T09:43:10.960Z,5.23
2018-04-22T09:45:38.679Z,5.60
2018-04-22T09:48:06.361Z,5.90
2018-04-22T09:50:34.013Z,5.13
2018-04-22T09:53:01.631Z,5.63
2018-04-22T09:55:29.299Z,5.20
2018-04-22T09:57:56.989Z,5.50
2018-04-22T10:00:30.181Z,5.40
2018-04-22T10:02:57.860Z,4.73
2018-04-22T10:05:25.548Z,5.00
2018-04-22T10:07:53.231Z,5.73
2018-04-22T10:10:20.898Z,6.13
2018-04-22T10:12:49.553Z,6.53
2018-04-22T10:15:17.164Z,6.30
2018-04-22T10:17:44.876Z,6.10
2018-04-22T10:20:12.504Z,6.13
2018-04-22T10:22:40.131Z,5.83
2018-04-22T10:25:07.780Z,6.67
2018-04-22T10:27:35.439Z,5.37
2018-04-22T10:30:03.193Z,5.80
2018-04-22T10:32:30.844Z,5.73
2018-04-22T10:34:58.512Z,5.10
2018-04-22T10:37:26.140Z,5.83
2018-04-22T10:39:53.841Z,5.53
2018-04-22T10:42:21.458Z,5.33
2018-04-22T10:44:49.152Z,4.47
2018-04-22T10:47:16.843Z,5.13
2018-04-22T10:49:44.474Z,4.90
2018-04-22T10:52:12.186Z,4.37
2018-04-22T10:54:39.828Z,5.67
2018-04-22T10:57:07.486Z,5.50
2018-04-22T10:59:35.181Z,4.80
2018-04-22T11:02:03.181Z,4.67
2018-04-22T11:04:30.851Z,5.50
2018-04-22T11:06:58.530Z,5.27
2018-04-22T11:09:26.160Z,4.70
2018-04-22T11:11:53.832Z,4.97
2018-04-22T11:14:21.572Z,4.80
2018-04-22T11:16:49.185Z,4.83
2018-04-22T11:19:16.869Z,4.87
2018-04-22T11:21:44.628Z,4.40
2018-04-22T11:24:12.309Z,4.67
2018-04-22T11:26:39.909Z,4.67
2018-04-22T11:29:07.529Z,5.50
2018-04-22T11:31:35.201Z,6.80
2018-04-22T11:34:02.924Z,4.83
2018-04-22T11:36:30.552Z,4.20
2018-04-22T11:38:58.255Z,5.07
2018-04-22T11:41:25.941Z,4.67
2018-04-22T11:43:53.548Z,4.50
2018-04-22T11:46:21.200Z,4.40
2018-04-22T11:48:48.860Z,4.73
2018-04-22T11:51:16.491Z,4.73
2018-04-22T11:53:44.183Z,3.50
2018-04-22T11:56:11.843Z,3.87
2018-04-22T11:58:40.049Z,3.70
2018-04-22T12:01:07.736Z,4.40
2018-04-22T12:03:35.434Z,4.00
2018-04-22T12:06:03.146Z,3.63
2018-04-22T12:08:30.868Z,4.03
2018-04-22T12:10:59.015Z,4.00
2018-04-22T12:13:26.729Z,4.43
2018-04-22T12:15:54.403Z,4.40
2018-04-22T12:18:22.082Z,4.67
2018-04-22T12:20:49.790Z,4.53
2018-04-22T12:23:17.463Z,3.27
2018-04-22T12:25:45.145Z,4.00
2018-04-22T12:28:12.834Z,4.40
2018-04-22T12:30:40.498Z,4.10
2018-04-22T12:33:08.126Z,4.07
2018-04-22T12:35:35.847Z,3.90
2018-04-22T12:38:03.606Z,4.00
2018-04-22T12:40:31.221Z,4.80
2018-04-22T12:42:59.497Z,4.03
2018-04-22T12:45:27.131Z,4.40
2018-04-22T12:47:54.885Z,4.50
2018-04-22T12:50:22.523Z,4.13
2018-04-22T12:52:51.177Z,3.90
2018-04-22T12:55:18.818Z,3.80
2018-04-22T12:57:46.517Z,4.43
2018-04-22T13:00:14.125Z,3.90
2018-04-22T13:02:41.868Z,4.20
2018-04-22T13:05:09.520Z,4.17
2018-04-22T13:07:37.110Z,3.83
2018-04-22T13:10:04.773Z,3.60
2018-04-22T13:12:32.380Z,4.00
2018-04-22T13:15:00.062Z,3.80
2018-04-22T13:17:27.690Z,4.00
2018-04-22T13:19:55.371Z,3.23
2018-04-22T13:22:22.978Z,4.53
2018-04-22T13:24:50.660Z,3.97
2018-04-22T13:27:18.400Z,3.90
2018-04-22T13:29:46.808Z,3.87
2018-04-22T13:32:14.484Z,4.10
2018-04-22T13:34:42.189Z,4.00
2018-04-22T13:37:09.882Z,3.43
2018-04-22T13:39:37.551Z,4.17
2018-04-22T13:42:05.237Z,3.87
2018-04-22T13:44:32.864Z,3.40
2018-04-22T13:47:00.588Z,3.80
2018-04-22T13:49:28.258Z,4.37
2018-04-22T13:51:57.059Z,3.53
2018-04-22T13:54:24.922Z,3.97
2018-04-22T13:56:52.590Z,3.43
2018-04-22T13:59:20.231Z,3.13
2018-04-22T14:01:47.927Z,3.83
2018-04-22T14:04:15.598Z,3.90
2018-04-22T14:06:43.283Z,4.20
2018-04-22T14:09:10.924Z,4.00
2018-04-22T14:11:39.656Z,3.60
2018-04-22T14:14:07.457Z,3.77
2018-04-22T14:16:35.201Z,4.40
2018-04-22T14:19:04.084Z,4.90
2018-04-22T14:21:31.809Z,3.30
2018-04-22T14:23:59.454Z,3.93
2018-04-22T14:26:27.379Z,3.23
2018-04-22T14:28:55.037Z,3.20
2018-04-22T14:31:22.790Z,3.30
2018-04-22T14:33:50.493Z,3.40
2018-04-22T14:36:18.187Z,2.90
2018-04-22T14:38:46.559Z,2.97
2018-04-22T14:41:14.300Z,2.90
2018-04-22T14:43:47.819Z,3.80
2018-04-22T14:46:15.478Z,2.90
2018-04-22T14:48:55.076Z,4.37
2018-04-22T14:51:23.994Z,3.60
2018-04-22T14:53:51.691Z,4.13
2018-04-22T14:56:20.343Z,3.43
2018-04-22T14:58:48.216Z,4.73
2018-04-22T15:01:15.860Z,4.63
2018-04-22T15:03:44.789Z,4.57
2018-04-22T15:06:12.434Z,4.07
2018-04-22T15:08:40.127Z,5.30
2018-04-22T15:11:07.778Z,4.00
2018-04-22T15:13:35.537Z,4.67
2018-04-22T15:16:03.176Z,5.33
2018-04-22T15:18:30.902Z,5.50
2018-04-22T15:20:59.291Z,4.63
2018-04-22T15:23:26.989Z,4.50
2018-04-22T15:25:55.370Z,4.50
2018-04-22T15:28:23.534Z,4.90
2018-04-22T15:30:51.207Z,5.43
2018-04-22T15:33:18.960Z,6.23
2018-04-22T15:35:46.836Z,5.47
2018-04-22T15:38:14.517Z,6.17
2018-04-22T15:40:42.211Z,4.50
2018-04-22T15:43:10.012Z,5.60
2018-04-22T15:45:37.825Z,5.70
2018-04-22T15:48:05.469Z,4.83
2018-04-22T15:50:33.222Z,4.60
2018-04-22T15:53:00.841Z,5.00
2018-04-22T15:55:28.725Z,5.77
2018-04-22T15:57:56.352Z,5.47
2018-04-22T16:00:24.134Z,5.27
2018-04-22T16:02:51.893Z,5.53
2018-04-22T16:05:20.971Z,5.00
2018-04-22T16:07:48.575Z,5.57
2018-04-22T16:10:16.294Z,5.97
2018-04-22T16:12:44.057Z,5.77
2018-04-22T16:15:11.818Z,5.60
2018-04-22T16:17:39.466Z,5.80
2018-04-22T16:20:08.106Z,6.07
2018-04-22T16:22:35.782Z,5.33
2018-04-22T16:25:03.480Z,5.97
2018-04-22T16:27:31.139Z,7.10
2018-04-22T16:29:58.813Z,6.27
2018-04-22T16:32:26.521Z,6.00
2018-04-22T16:34:54.337Z,6.33
2018-04-22T16:37:22.021Z,5.20
2018-04-22T16:39:49.722Z,6.33
2018-04-22T16:42:17.460Z,5.33
2018-04-22T16:44:45.674Z,5.87
2018-04-22T16:47:14.297Z,6.87
2018-04-22T16:49:41.948Z,6.00
2018-04-22T16:52:09.691Z,7.33
2018-04-22T16:54:37.409Z,5.80
2018-04-22T16:57:05.163Z,5.80
2018-04-22T16:59:33.434Z,5.73
2018-04-22T17:02:01.065Z,6.53
2018-04-22T17:04:28.755Z,6.10
2018-04-22T17:06:56.686Z,6.00
2018-04-22T17:09:24.304Z,6.40
2018-04-22T17:11:52.010Z,5.87
2018-04-22T17:14:19.868Z,7.60
2018-04-22T17:16:48.463Z,5.30
2018-04-22T17:19:16.117Z,5.70
2018-04-22T17:21:43.800Z,6.10
2018-04-22T17:24:11.515Z,6.07
2018-04-22T17:26:39.432Z,5.63
2018-04-22T17:29:07.172Z,5.70
2018-04-22T17:31:34.923Z,6.03
2018-04-22T17:34:02.602Z,5.43
2018-04-22T17:36:30.484Z,6.17
2018-04-22T17:38:58.181Z,7.10
2018-04-22T17:41:26.430Z,6.70
2018-04-22T17:43:54.120Z,6.20
2018-04-22T17:46:21.782Z,5.63
2018-04-22T17:48:49.469Z,6.47
2018-04-22T17:51:17.104Z,5.70
2018-04-22T17:53:44.783Z,6.60
2018-04-22T17:56:12.528Z,6.00
2018-04-22T17:58:40.199Z,12.40
2018-04-22T18:01:07.849Z,7.33
2018-04-22T18:03:35.613Z,6.50
2018-04-22T18:06:03.290Z,6.20
2018-04-22T18:08:30.925Z,5.43
2018-04-22T18:10:59.582Z,6.60
2018-04-22T18:13:27.261Z,6.00
2018-04-22T18:15:54.968Z,6.37
2018-04-22T18:18:22.590Z,6.40
2018-04-22T18:20:50.260Z,5.40
2018-04-22T18:23:17.988Z,5.90
2018-04-22T18:25:45.616Z,6.10
2018-04-22T18:28:13.737Z,5.60
2018-04-22T18:30:41.426Z,7.70
2018-04-22T18:33:09.047Z,6.03
2018-04-22T18:35:36.934Z,6.63
2018-04-22T18:38:04.704Z,5.70
2018-04-22T18:40:32.365Z,6.17
2018-04-22T18:43:00.085Z,5.90
2018-04-22T18:45:27.779Z,6.57
2018-04-22T18:47:55.469Z,6.43
2018-04-22T18:50:23.181Z,5.80
2018-04-22T18:52:50.968Z,7.37
2018-04-22T18:55:20.049Z,7.00
2018-04-22T18:57:47.706Z,6.23
2018-04-22T19:00:19.112Z,6.70
2018-04-22T19:02:47.858Z,6.53
2018-04-22T19:05:15.750Z,4.83
2018-04-22T19:07:43.579Z,6.20
2018-04-22T19:10:11.229Z,6.67
2018-04-22T19:12:40.934Z,5.80
2018-04-22T19:15:08.767Z,6.20
2018-04-22T19:17:36.452Z,6.60
2018-04-22T19:20:04.283Z,7.33
2018-04-22T19:22:34.245Z,7.37
2018-04-22T19:25:01.984Z,7.43
2018-04-22T19:27:30.168Z,7.53
2018-04-22T19:29:59.457Z,6.97
2018-04-22T19:32:27.158Z,7.00
2018-04-22T19:34:56.214Z,7.17
2018-04-22T19:37:23.972Z,7.00
2018-04-22T19:39:51.804Z,7.80
2018-04-22T19:42:19.595Z,7.00
2018-04-22T19:44:47.321Z,5.80
2018-04-22T19:47:15.063Z,7.37
2018-04-22T19:49:42.786Z,6.80
2018-04-22T19:52:10.490Z,6.53
2018-04-22T19:54:38.251Z,6.70
2018-04-22T19:57:07.219Z,6.73
2018-04-22T19:59:35.880Z,6.20
2018-04-22T20:02:03.563Z,7.30
2018-04-22T20:04:31.257Z,6.20
2018-04-22T20:06:58.983Z,6.57
2018-04-22T20:09:26.684Z,8.40
2018-04-22T20:11:55.031Z,6.90
2018-04-22T20:14:22.689Z,7.10
2018-04-22T20:16:50.350Z,6.10
2018-04-22T20:19:18.016Z,7.30
2018-04-22T20:21:45.694Z,7.97
2018-04-22T20:24:13.325Z,7.83
2018-04-22T20:26:41.013Z,7.33
2018-04-22T20:29:08.686Z,7.03
2018-04-22T20:31:36.425Z,7.80
2018-04-22T20:34:04.846Z,6.90
2018-04-22T20:36:32.565Z,8.13
2018-04-22T20:39:00.263Z,8.13
2018-04-22T20:41:28.449Z,8.50
2018-04-22T20:43:56.078Z,7.83
2018-04-22T20:46:23.744Z,7.70
2018-04-22T20:48:52.458Z,7.40
2018-04-22T20:51:20.092Z,6.67
2018-04-22T20:53:47.765Z,7.40
2018-04-22T20:56:15.463Z,6.70
2018-04-22T20:58:43.098Z,7.87
2018-04-22T21:01:10.743Z,7.80
2018-04-22T21:03:38.422Z,6.73
2018-04-22T21:06:07.573Z,7.07
2018-04-22T21:08:35.163Z,6.70
2018-04-22T21:11:02.760Z,7.33
2018-04-22T21:13:30.425Z,6.73
2018-04-22T21:15:58.051Z,7.70
2018-04-22T21:18:25.723Z,7.90
2018-04-22T21:20:53.350Z,7.30
2018-04-22T21:23:21.046Z,7.30
2018-04-22T21:25:48.645Z,7.73
2018-04-22T21:28:16.374Z,7.20
2018-04-22T21:30:43.988Z,7.97
2018-04-22T21:33:11.609Z,7.80
2018-04-22T21:35:39.264Z,7.80
2018-04-22T21:38:06.912Z,7.83
2018-04-22T21:40:34.520Z,8.23
2018-04-22T21:43:02.167Z,7.63
2018-04-22T21:45:29.766Z,7.87
2018-04-22T21:47:57.450Z,7.97
2018-04-22T21:50:25.043Z,7.30
2018-04-22T21:52:52.723Z,7.53
2018-04-22T21:55:20.438Z,8.43
2018-04-22T21:57:48.111Z,7.93
2018-04-22T22:00:15.719Z,8.53
2018-04-22T22:02:43.403Z,8.17
2018-04-22T22:05:11.017Z,7.83
2018-04-22T22:07:38.662Z,8.03
2018-04-22T22:10:06.284Z,8.37
2018-04-22T22:12:33.948Z,8.10
2018-04-22T22:15:01.714Z,7.93
2018-04-22T22:17:29.375Z,8.07
2018-04-22T22:19:57.065Z,8.60
2018-04-22T22:22:24.655Z,7.80
2018-04-22T22:24:52.306Z,7.57
2018-04-22T22:27:19.947Z,8.03
2018-04-22T22:29:47.587Z,9.03
2018-04-22T22:32:15.255Z,7.97
2018-04-22T22:34:42.838Z,8.47
2018-04-22T22:37:10.509Z,8.23
2018-04-22T22:39:38.088Z,8.87
2018-04-22T22:42:05.735Z,7.73
2018-04-22T22:44:33.380Z,8.50
2018-04-22T22:47:01.025Z,8.47
2018-04-22T22:49:28.685Z,8.57
2018-04-22T22:51:56.344Z,7.57
2018-04-22T22:54:23.958Z,7.87
2018-04-22T22:56:51.636Z,7.93
2018-04-22T22:59:19.225Z,8.60
2018-04-22T23:01:46.806Z,8.33
2018-04-22T23:04:14.515Z,8.10
2018-04-22T23:06:42.233Z,7.20
2018-04-22T23:09:09.874Z,8.23
2018-04-22T23:11:37.566Z,8.50
2018-04-22T23:14:05.206Z,8.90
2018-04-22T23:16:32.867Z,8.20
2018-04-22T23:19:00.468Z,9.53
2018-04-22T23:21:28.149Z,8.83
2018-04-22T23:23:55.747Z,8.20
2018-04-22T23:26:23.409Z,8.30
2018-04-22T23:28:51.017Z,8.30
2018-04-22T23:31:18.673Z,8.20
2018-04-22T23:33:46.288Z,8.47
2018-04-22T23:36:13.993Z,7.93
2018-04-22T23:38:41.569Z,9.03
2018-04-22T23:41:09.257Z,8.20
2018-04-22T23:43:36.844Z,7.30
2018-04-22T23:46:04.561Z,9.17
2018-04-22T23:48:32.206Z,9.80
2018-04-22T23:50:59.829Z,7.37
2018-04-22T23:53:27.476Z,8.70
2018-04-22T23:55:55.128Z,9.00
2018-04-22T23:58:22.829Z,8.17
